Time;durP1;ratioP1;P1;durP2;ratioP2;P2;SDS_P1;SDS_P2;PMS_P1;PMS_P2;Temp;Humidity;BMP_temperature;BMP_pressure;BME280_temperature;BME280_humidity;BME280_pressure;Samples;Min_cycle;Max_cycle;Signal;HPM_P1;HPM_P2
2023/05/30 00:01:27;;;;;;;9.85;3.17;;;;;;;;;;6114196;23;20030;-53
2023/05/30 00:04:01;;;;;;;10.90;3.15;;;;;;;;;;6113412;23;20028;-56
2023/05/30 00:06:28;;;;;;;8.68;3.05;;;;;;;;;;6115362;23;20553;-51
2023/05/30 00:09:02;;;;;;;7.82;3.08;;;;;;;;;;6115655;23;20025;-54
2023/05/30 00:11:30;;;;;;;;;;;;;;;;;;6115031;23;20037;-53
2023/05/30 00:13:58;;;;;;;12.07;2.43;;;;;;;;;;6116888;23;20286;-51
2023/05/30 00:16:34;;;;;;;9.38;3.42;;;;;;;;;;6114620;23;20366;-49
2023/05/30 00:19:04;;;;;;;10.93;3.20;;;;;;;;;;6114435;23;20073;-49
2023/05/30 00:21:39;;;;;;;11.95;3.20;;;;;;;;;;6114426;23;20030;-51
2023/05/30 00:24:22;;;;;;;12.10;3.53;;;;;;;;;;6116422;23;20109;-52
2023/05/30 00:27:05;;;;;;;13.57;3.15;;;;;;;;;;6116593;23;20022;-49
2023/05/30 00:29:32;;;;;;;10.90;3.65;;;;;;;;;;6115721;23;20034;-47
2023/05/30 00:32:06;;;;;;;5.90;2.78;;;;;;;;;;6116087;23;20029;-50
2023/05/30 00:34:40;;;;;;;11.23;3.33;;;;;;;;;;6112340;23;20080;-47
2023/05/30 00:37:13;;;;;;;9.88;3.15;;;;;;;;;;6114037;23;20399;-50
2023/05/30 00:39:54;;;;;;;12.82;3.83;;;;;;;;;;6113994;23;20814;-49
2023/05/30 00:42:22;;;;;;;9.20;3.13;;;;;;;;;;6114013;23;20026;-46
2023/05/30 00:44:56;;;;;;;8.55;3.85;;;;;;;;;;6115273;23;20030;-50
2023/05/30 00:47:23;;;;;;;8.07;3.35;;;;;;;;;;6113311;23;20037;-49
2023/05/30 00:49:51;;;;;;;7.60;3.13;;;;;;;;;;6114187;23;20092;-51
2023/05/30 00:52:25;;;;;;;10.40;3.33;;;;;;;;;;6114865;23;20081;-65
2023/05/30 00:54:53;;;;;;;6.28;2.70;;;;;;;;;;6114688;23;20029;-59
2023/05/30 00:57:28;;;;;;;13.15;3.20;;;;;;;;;;6114407;23;20089;-59
2023/05/30 00:59:55;;;;;;;13.98;3.72;;;;;;;;;;6115974;23;20093;-59
2023/05/30 01:02:23;;;;;;;13.80;3.22;;;;;;;;;;6113879;23;20080;-59
2023/05/30 01:04:57;;;;;;;6.47;3.42;;;;;;;;;;6114239;23;20090;-59
2023/05/30 01:07:25;;;;;;;10.38;3.30;;;;;;;;;;6114188;23;20449;-58
2023/05/30 01:09:59;;;;;;;7.78;3.78;;;;;;;;;;6114213;23;20029;-65
2023/05/30 01:12:33;;;;;;;11.77;3.53;;;;;;;;;;6115061;23;20093;-64
2023/05/30 01:15:10;;;;;;;14.32;3.13;;;;;;;;;;6114719;23;20081;-64
2023/05/30 23:19:03;;;;;;;4.18;1.50;;;;;;;;;;6082032;23;20034;-49
2023/05/30 23:21:39;;;;;;;4.50;1.23;;;;;;;;;;6085414;23;20026;-51
2023/05/30 23:24:13;;;;;;;2.65;1.00;;;;;;;;;;6085950;23;20474;-47
2023/05/30 23:26:41;;;;;;;2.92;1.17;;;;;;;;;;6083322;23;20088;-66
2023/05/30 23:29:08;;;;;;;3.22;1.27;;;;;;;;;;6084969;23;20030;-52
2023/05/30 23:31:43;;;;;;;4.25;1.25;;;;;;;;;;6084925;23;20038;-65
2023/05/30 23:34:11;;;;;;;6.10;1.42;;;;;;;;;;6086373;23;20019;-65
2023/05/30 23:36:46;;;;;;;3.20;1.20;;;;;;;;;;6086951;23;20460;-65
2023/05/30 23:39:13;;;;;;;4.80;1.63;;;;;;;;;;6087777;23;20455;-65
2023/05/30 23:41:40;;;;;;;6.97;1.42;;;;;;;;;;6083527;23;20034;-65
2023/05/30 23:44:15;;;;;;;3.15;1.10;;;;;;;;;;6086803;23;20027;-65
2023/05/30 23:46:42;;;;;;;3.83;1.23;;;;;;;;;;6087813;23;20084;-55
2023/05/30 23:49:09;;;;;;;2.25;1.20;;;;;;;;;;6087280;23;20046;-50
2023/05/30 23:51:43;;;;;;;6.00;1.60;;;;;;;;;;6086545;23;20030;-52
2023/05/30 23:54:10;;;;;;;2.33;1.23;;;;;;;;;;6087695;23;20022;-52
2023/05/30 23:56:44;;;;;;;3.63;1.30;;;;;;;;;;6086559;23;20026;-48
2023/05/30 23:59:12;;;;;;;3.75;1.50;;;;;;;;;;6086306;23;20510;-57
